sensor_id;sensor_type;location;lat;lon;timestamp;P1;durP1;ratioP1;P2;durP2;ratioP2
11346;SDS011;5728;42.722;23.258;2023-11-21T00:00:56;21.50;;;12.77;;
11346;SDS011;5728;42.722;23.258;2023-11-21T00:03:25;29.03;;;14.37;;
11346;SDS011;5728;42.722;23.258;2023-11-21T00:05:53;27.70;;;14.37;;
11346;SDS011;5728;42.722;23.258;2023-11-21T00:08:20;25.27;;;13.67;;
11346;SDS011;5728;42.722;23.258;2023-11-21T00:10:47;28.93;;;13.33;;
11346;SDS011;5728;42.722;23.258;2023-11-21T00:13:14;26.90;;;14.00;;
11346;SDS011;5728;42.722;23.258;2023-11-21T00:15:41;25.93;;;13.43;;
11346;SDS011;5728;42.722;23.258;2023-11-21T00:18:07;21.53;;;12.97;;
11346;SDS011;5728;42.722;23.258;2023-11-21T00:20:36;28.83;;;14.00;;
11346;SDS011;5728;42.722;23.258;2023-11-21T00:23:03;24.10;;;12.67;;
11346;SDS011;5728;42.722;23.258;2023-11-21T00:25:30;24.20;;;12.40;;
11346;SDS011;5728;42.722;23.258;2023-11-21T00:27:57;26.83;;;14.27;;
11346;SDS011;5728;42.722;23.258;2023-11-21T00:30:26;29.77;;;13.93;;
11346;SDS011;5728;42.722;23.258;2023-11-21T00:32:54;25.13;;;13.83;;
11346;SDS011;5728;42.722;23.258;2023-11-21T00:35:20;38.37;;;17.83;;
11346;SDS011;5728;42.722;23.258;2023-11-21T00:37:49;42.77;;;18.40;;
11346;SDS011;5728;42.722;23.258;2023-11-21T00:40:15;33.20;;;15.83;;
11346;SDS011;5728;42.722;23.258;2023-11-21T00:42:44;35.77;;;15.37;;
11346;SDS011;5728;42.722;23.258;2023-11-21T00:45:11;32.17;;;17.47;;
11346;SDS011;5728;42.722;23.258;2023-11-21T00:47:38;30.57;;;15.70;;
11346;SDS011;5728;42.722;23.258;2023-11-21T00:50:05;24.00;;;13.50;;
11346;SDS011;5728;42.722;23.258;2023-11-21T00:52:33;26.30;;;14.23;;
11346;SDS011;5728;42.722;23.258;2023-11-21T00:55:01;23.67;;;13.27;;
11346;SDS011;5728;42.722;23.258;2023-11-21T00:57:28;23.77;;;12.07;;
11346;SDS011;5728;42.722;23.258;2023-11-21T00:59:55;22.53;;;14.13;;
11346;SDS011;5728;42.722;23.258;2023-11-21T01:02:22;20.73;;;12.23;;
11346;SDS011;5728;42.722;23.258;2023-11-21T01:04:48;21.93;;;11.57;;
11346;SDS011;5728;42.722;23.258;2023-11-21T01:07:15;20.83;;;12.27;;
11346;SDS011;5728;42.722;23.258;2023-11-21T01:09:42;18.83;;;12.07;;
11346;SDS011;5728;42.722;23.258;2023-11-21T01:12:11;22.30;;;10.57;;
11346;SDS011;5728;42.722;23.258;2023-11-21T01:14:38;23.77;;;11.57;;
11346;SDS011;5728;42.722;23.258;2023-11-21T01:17:04;17.13;;;9.10;;
11346;SDS011;5728;42.722;23.258;2023-11-21T01:19:32;24.30;;;12.50;;
11346;SDS011;5728;42.722;23.258;2023-11-21T01:21:59;21.67;;;11.27;;
11346;SDS011;5728;42.722;23.258;2023-11-21T01:24:25;27.87;;;13.13;;
11346;SDS011;5728;42.722;23.258;2023-11-21T01:26:52;22.83;;;14.00;;
11346;SDS011;5728;42.722;23.258;2023-11-21T01:29:20;23.83;;;14.10;;
11346;SDS011;5728;42.722;23.258;2023-11-21T01:31:47;27.37;;;13.60;;
11346;SDS011;5728;42.722;23.258;2023-11-21T01:34:14;25.17;;;13.53;;
11346;SDS011;5728;42.722;23.258;2023-11-21T01:36:41;27.33;;;14.80;;
11346;SDS011;5728;42.722;23.258;2023-11-21T01:39:07;28.03;;;16.80;;
11346;SDS011;5728;42.722;23.258;2023-11-21T01:41:33;30.77;;;15.90;;
11346;SDS011;5728;42.722;23.258;2023-11-21T01:44:01;26.60;;;16.00;;
11346;SDS011;5728;42.722;23.258;2023-11-21T01:46:29;23.90;;;13.97;;
11346;SDS011;5728;42.722;23.258;2023-11-21T01:48:56;29.87;;;14.67;;
11346;SDS011;5728;42.722;23.258;2023-11-21T01:51:23;26.20;;;14.70;;
11346;SDS011;5728;42.722;23.258;2023-11-21T01:53:51;26.77;;;15.27;;
11346;SDS011;5728;42.722;23.258;2023-11-21T01:56:19;22.77;;;13.07;;
11346;SDS011;5728;42.722;23.258;2023-11-21T01:58:47;29.37;;;15.57;;
11346;SDS011;5728;42.722;23.258;2023-11-21T02:01:13;29.33;;;16.03;;
11346;SDS011;5728;42.722;23.258;2023-11-21T02:03:42;27.13;;;14.17;;
11346;SDS011;5728;42.722;23.258;2023-11-21T02:06:08;25.67;;;13.67;;
11346;SDS011;5728;42.722;23.258;2023-11-21T02:08:35;29.77;;;14.87;;
11346;SDS011;5728;42.722;23.258;2023-11-21T02:11:04;27.87;;;15.27;;
11346;SDS011;5728;42.722;23.258;2023-11-21T02:13:32;22.37;;;14.20;;
11346;SDS011;5728;42.722;23.258;2023-11-21T02:15:59;23.97;;;15.13;;
11346;SDS011;5728;42.722;23.258;2023-11-21T02:18:30;22.67;;;14.53;;
11346;SDS011;5728;42.722;23.258;2023-11-21T02:20:58;25.53;;;11.20;;
11346;SDS011;5728;42.722;23.258;2023-11-21T02:23:29;14.13;;;9.80;;
11346;SDS011;5728;42.722;23.258;2023-11-21T02:25:56;12.80;;;8.57;;
11346;SDS011;5728;42.722;23.258;2023-11-21T02:28:24;14.33;;;9.00;;
11346;SDS011;5728;42.722;23.258;2023-11-21T02:30:51;18.57;;;10.30;;
11346;SDS011;5728;42.722;23.258;2023-11-21T02:33:20;15.20;;;7.87;;
11346;SDS011;5728;42.722;23.258;2023-11-21T02:35:47;14.93;;;8.37;;
11346;SDS011;5728;42.722;23.258;2023-11-21T02:38:14;13.80;;;8.63;;
11346;SDS011;5728;42.722;23.258;2023-11-21T02:40:43;14.03;;;8.90;;
11346;SDS011;5728;42.722;23.258;2023-11-21T02:43:10;17.97;;;9.37;;
11346;SDS011;5728;42.722;23.258;2023-11-21T02:45:37;14.57;;;8.63;;
11346;SDS011;5728;42.722;23.258;2023-11-21T02:48:04;17.97;;;8.47;;
11346;SDS011;5728;42.722;23.258;2023-11-21T02:50:31;13.60;;;7.70;;
11346;SDS011;5728;42.722;23.258;2023-11-21T02:52:58;12.77;;;7.70;;
11346;SDS011;5728;42.722;23.258;2023-11-21T02:55:25;13.67;;;8.30;;
11346;SDS011;5728;42.722;23.258;2023-11-21T02:57:53;15.30;;;8.67;;
11346;SDS011;5728;42.722;23.258;2023-11-21T03:00:21;15.50;;;8.40;;
11346;SDS011;5728;42.722;23.258;2023-11-21T03:02:49;12.83;;;7.13;;
11346;SDS011;5728;42.722;23.258;2023-11-21T03:05:16;20.17;;;9.27;;
11346;SDS011;5728;42.722;23.258;2023-11-21T03:07:44;16.70;;;8.60;;
11346;SDS011;5728;42.722;23.258;2023-11-21T03:10:11;11.37;;;7.87;;
11346;SDS011;5728;42.722;23.258;2023-11-21T03:12:38;12.83;;;6.70;;
11346;SDS011;5728;42.722;23.258;2023-11-21T03:15:07;13.63;;;7.37;;
11346;SDS011;5728;42.722;23.258;2023-11-21T03:17:35;14.77;;;7.73;;
11346;SDS011;5728;42.722;23.258;2023-11-21T03:20:02;11.40;;;7.40;;
11346;SDS011;5728;42.722;23.258;2023-11-21T03:22:29;12.73;;;8.17;;
11346;SDS011;5728;42.722;23.258;2023-11-21T03:24:56;16.93;;;10.47;;
11346;SDS011;5728;42.722;23.258;2023-11-21T03:27:23;14.93;;;9.47;;
11346;SDS011;5728;42.722;23.258;2023-11-21T03:29:50;12.63;;;7.00;;
11346;SDS011;5728;42.722;23.258;2023-11-21T03:32:18;12.13;;;7.47;;
11346;SDS011;5728;42.722;23.258;2023-11-21T03:34:55;11.87;;;8.10;;
11346;SDS011;5728;42.722;23.258;2023-11-21T03:37:23;19.53;;;8.43;;
11346;SDS011;5728;42.722;23.258;2023-11-21T03:39:50;13.07;;;8.33;;
11346;SDS011;5728;42.722;23.258;2023-11-21T03:42:16;15.33;;;8.57;;
11346;SDS011;5728;42.722;23.258;2023-11-21T03:44:43;17.00;;;8.17;;
11346;SDS011;5728;42.722;23.258;2023-11-21T03:47:10;15.30;;;8.30;;
11346;SDS011;5728;42.722;23.258;2023-11-21T03:49:39;13.57;;;8.03;;
11346;SDS011;5728;42.722;23.258;2023-11-21T03:52:06;13.07;;;9.27;;
11346;SDS011;5728;42.722;23.258;2023-11-21T03:54:34;13.27;;;7.93;;
11346;SDS011;5728;42.722;23.258;2023-11-21T03:57:01;12.10;;;7.63;;
11346;SDS011;5728;42.722;23.258;2023-11-21T03:59:28;13.83;;;6.50;;
11346;SDS011;5728;42.722;23.258;2023-11-21T04:01:56;13.47;;;7.63;;
11346;SDS011;5728;42.722;23.258;2023-11-21T04:04:23;17.33;;;8.53;;
11346;SDS011;5728;42.722;23.258;2023-11-21T04:06:51;16.80;;;9.43;;
11346;SDS011;5728;42.722;23.258;2023-11-21T04:09:18;27.17;;;12.83;;
11346;SDS011;5728;42.722;23.258;2023-11-21T04:11:45;30.47;;;17.33;;
11346;SDS011;5728;42.722;23.258;2023-11-21T04:14:12;37.50;;;18.67;;
11346;SDS011;5728;42.722;23.258;2023-11-21T04:16:40;30.40;;;17.27;;
11346;SDS011;5728;42.722;23.258;2023-11-21T04:19:07;29.47;;;17.57;;
11346;SDS011;5728;42.722;23.258;2023-11-21T04:21:35;24.00;;;14.83;;
11346;SDS011;5728;42.722;23.258;2023-11-21T04:24:04;25.73;;;15.07;;
11346;SDS011;5728;42.722;23.258;2023-11-21T04:26:31;29.53;;;16.43;;
11346;SDS011;5728;42.722;23.258;2023-11-21T04:28:58;27.20;;;16.83;;
11346;SDS011;5728;42.722;23.258;2023-11-21T04:31:25;27.90;;;16.60;;
11346;SDS011;5728;42.722;23.258;2023-11-21T04:33:52;27.53;;;16.37;;
11346;SDS011;5728;42.722;23.258;2023-11-21T04:36:19;30.90;;;16.47;;
11346;SDS011;5728;42.722;23.258;2023-11-21T04:38:46;29.07;;;16.37;;
11346;SDS011;5728;42.722;23.258;2023-11-21T04:41:14;33.73;;;17.13;;
11346;SDS011;5728;42.722;23.258;2023-11-21T04:43:41;29.83;;;16.33;;
11346;SDS011;5728;42.722;23.258;2023-11-21T04:46:08;40.27;;;16.20;;
11346;SDS011;5728;42.722;23.258;2023-11-21T04:48:35;30.53;;;16.23;;
11346;SDS011;5728;42.722;23.258;2023-11-21T04:51:02;32.73;;;16.63;;
11346;SDS011;5728;42.722;23.258;2023-11-21T04:53:29;30.67;;;17.17;;
11346;SDS011;5728;42.722;23.258;2023-11-21T04:55:56;34.20;;;16.00;;
11346;SDS011;5728;42.722;23.258;2023-11-21T04:58:24;26.23;;;15.33;;
11346;SDS011;5728;42.722;23.258;2023-11-21T05:00:51;26.63;;;15.03;;
11346;SDS011;5728;42.722;23.258;2023-11-21T05:03:18;26.23;;;15.83;;
11346;SDS011;5728;42.722;23.258;2023-11-21T05:05:44;23.63;;;14.00;;
11346;SDS011;5728;42.722;23.258;2023-11-21T05:08:11;34.93;;;15.67;;
11346;SDS011;5728;42.722;23.258;2023-11-21T05:10:38;31.20;;;16.00;;
11346;SDS011;5728;42.722;23.258;2023-11-21T05:13:05;27.87;;;16.67;;
11346;SDS011;5728;42.722;23.258;2023-11-21T05:15:36;27.27;;;16.90;;
11346;SDS011;5728;42.722;23.258;2023-11-21T05:18:03;30.53;;;16.93;;
11346;SDS011;5728;42.722;23.258;2023-11-21T05:20:30;30.87;;;17.70;;
11346;SDS011;5728;42.722;23.258;2023-11-21T05:22:58;32.57;;;17.80;;
11346;SDS011;5728;42.722;23.258;2023-11-21T05:25:25;33.87;;;17.33;;
11346;SDS011;5728;42.722;23.258;2023-11-21T05:27:51;31.73;;;16.93;;
11346;SDS011;5728;42.722;23.258;2023-11-21T05:30:19;32.93;;;16.67;;
11346;SDS011;5728;42.722;23.258;2023-11-21T05:32:48;41.60;;;18.93;;
11346;SDS011;5728;42.722;23.258;2023-11-21T05:35:15;31.57;;;16.47;;
11346;SDS011;5728;42.722;23.258;2023-11-21T05:37:43;39.23;;;17.57;;
11346;SDS011;5728;42.722;23.258;2023-11-21T05:40:10;35.87;;;19.17;;
11346;SDS011;5728;42.722;23.258;2023-11-21T05:42:38;33.77;;;17.77;;
11346;SDS011;5728;42.722;23.258;2023-11-21T05:45:06;33.17;;;17.37;;
11346;SDS011;5728;42.722;23.258;2023-11-21T05:47:36;36.30;;;18.97;;
11346;SDS011;5728;42.722;23.258;2023-11-21T05:50:06;32.50;;;16.30;;
11346;SDS011;5728;42.722;23.258;2023-11-21T05:52:37;30.17;;;16.13;;
11346;SDS011;5728;42.722;23.258;2023-11-21T05:55:04;30.33;;;16.40;;
11346;SDS011;5728;42.722;23.258;2023-11-21T05:57:32;37.53;;;17.57;;
11346;SDS011;5728;42.722;23.258;2023-11-21T06:00:01;33.87;;;17.20;;
11346;SDS011;5728;42.722;23.258;2023-11-21T06:02:34;41.77;;;20.97;;
11346;SDS011;5728;42.722;23.258;2023-11-21T06:05:00;45.53;;;27.67;;
11346;SDS011;5728;42.722;23.258;2023-11-21T06:07:30;40.90;;;24.50;;
11346;SDS011;5728;42.722;23.258;2023-11-21T06:09:57;35.97;;;19.17;;
11346;SDS011;5728;42.722;23.258;2023-11-21T06:12:24;29.10;;;17.10;;
11346;SDS011;5728;42.722;23.258;2023-11-21T06:14:51;34.33;;;16.97;;
11346;SDS011;5728;42.722;23.258;2023-11-21T06:17:18;29.67;;;17.27;;
11346;SDS011;5728;42.722;23.258;2023-11-21T06:19:45;32.73;;;18.60;;
11346;SDS011;5728;42.722;23.258;2023-11-21T06:22:11;34.03;;;17.00;;
11346;SDS011;5728;42.722;23.258;2023-11-21T06:24:40;31.87;;;17.47;;
11346;SDS011;5728;42.722;23.258;2023-11-21T06:27:07;34.37;;;17.70;;
11346;SDS011;5728;42.722;23.258;2023-11-21T06:29:34;44.00;;;19.23;;
11346;SDS011;5728;42.722;23.258;2023-11-21T06:32:02;37.40;;;18.73;;
11346;SDS011;5728;42.722;23.258;2023-11-21T06:34:30;33.57;;;19.73;;
11346;SDS011;5728;42.722;23.258;2023-11-21T06:36:57;35.97;;;17.97;;
11346;SDS011;5728;42.722;23.258;2023-11-21T06:39:23;33.70;;;17.83;;
11346;SDS011;5728;42.722;23.258;2023-11-21T06:41:52;36.23;;;17.77;;
11346;SDS011;5728;42.722;23.258;2023-11-21T06:44:19;32.07;;;18.13;;
11346;SDS011;5728;42.722;23.258;2023-11-21T06:46:47;28.27;;;16.77;;
11346;SDS011;5728;42.722;23.258;2023-11-21T06:49:13;33.10;;;16.47;;
11346;SDS011;5728;42.722;23.258;2023-11-21T06:51:41;32.50;;;17.27;;
11346;SDS011;5728;42.722;23.258;2023-11-21T06:54:08;32.97;;;16.93;;
11346;SDS011;5728;42.722;23.258;2023-11-21T06:56:35;24.00;;;14.13;;
11346;SDS011;5728;42.722;23.258;2023-11-21T06:59:04;27.00;;;13.70;;
11346;SDS011;5728;42.722;23.258;2023-11-21T07:01:32;27.40;;;15.10;;
11346;SDS011;5728;42.722;23.258;2023-11-21T07:04:04;25.43;;;13.30;;
11346;SDS011;5728;42.722;23.258;2023-11-21T07:06:34;22.43;;;12.33;;
11346;SDS011;5728;42.722;23.258;2023-11-21T07:09:02;18.57;;;11.13;;
11346;SDS011;5728;42.722;23.258;2023-11-21T07:11:29;21.13;;;11.87;;
11346;SDS011;5728;42.722;23.258;2023-11-21T07:13:56;16.13;;;9.50;;
11346;SDS011;5728;42.722;23.258;2023-11-21T07:16:24;16.50;;;10.03;;
11346;SDS011;5728;42.722;23.258;2023-11-21T07:18:51;20.47;;;10.50;;
11346;SDS011;5728;42.722;23.258;2023-11-21T07:21:20;21.37;;;11.83;;
11346;SDS011;5728;42.722;23.258;2023-11-21T07:23:47;21.70;;;12.40;;
11346;SDS011;5728;42.722;23.258;2023-11-21T07:26:14;35.27;;;16.83;;
11346;SDS011;5728;42.722;23.258;2023-11-21T07:28:40;32.00;;;15.50;;
11346;SDS011;5728;42.722;23.258;2023-11-21T07:31:07;28.20;;;14.80;;
11346;SDS011;5728;42.722;23.258;2023-11-21T07:33:35;42.17;;;16.60;;
11346;SDS011;5728;42.722;23.258;2023-11-21T07:36:04;31.70;;;14.87;;
11346;SDS011;5728;42.722;23.258;2023-11-21T07:38:31;39.63;;;15.63;;
11346;SDS011;5728;42.722;23.258;2023-11-21T07:40:59;32.37;;;17.27;;
11346;SDS011;5728;42.722;23.258;2023-11-21T07:43:26;36.00;;;17.10;;
11346;SDS011;5728;42.722;23.258;2023-11-21T07:45:59;25.10;;;14.47;;
11346;SDS011;5728;42.722;23.258;2023-11-21T07:48:27;29.73;;;15.30;;
11346;SDS011;5728;42.722;23.258;2023-11-21T07:50:56;38.23;;;17.00;;
11346;SDS011;5728;42.722;23.258;2023-11-21T07:53:23;34.13;;;19.73;;
11346;SDS011;5728;42.722;23.258;2023-11-21T07:55:50;34.00;;;17.77;;
11346;SDS011;5728;42.722;23.258;2023-11-21T07:58:17;27.70;;;17.37;;
11346;SDS011;5728;42.722;23.258;2023-11-21T08:00:44;24.03;;;15.60;;
11346;SDS011;5728;42.722;23.258;2023-11-21T08:03:13;30.10;;;15.73;;
11346;SDS011;5728;42.722;23.258;2023-11-21T08:05:40;28.93;;;15.10;;
11346;SDS011;5728;42.722;23.258;2023-11-21T08:08:08;31.53;;;16.13;;
11346;SDS011;5728;42.722;23.258;2023-11-21T08:10:35;24.90;;;14.50;;
11346;SDS011;5728;42.722;23.258;2023-11-21T08:13:02;27.40;;;15.87;;
11346;SDS011;5728;42.722;23.258;2023-11-21T08:15:29;38.60;;;17.80;;
11346;SDS011;5728;42.722;23.258;2023-11-21T08:17:57;33.50;;;17.27;;
11346;SDS011;5728;42.722;23.258;2023-11-21T08:20:24;41.97;;;18.70;;
11346;SDS011;5728;42.722;23.258;2023-11-21T08:22:51;31.80;;;18.37;;
11346;SDS011;5728;42.722;23.258;2023-11-21T08:25:20;38.10;;;18.93;;
11346;SDS011;5728;42.722;23.258;2023-11-21T08:27:47;42.57;;;19.23;;
11346;SDS011;5728;42.722;23.258;2023-11-21T08:30:14;28.03;;;17.87;;
11346;SDS011;5728;42.722;23.258;2023-11-21T08:32:42;34.67;;;18.97;;
11346;SDS011;5728;42.722;23.258;2023-11-21T08:35:10;37.10;;;19.00;;
11346;SDS011;5728;42.722;23.258;2023-11-21T08:37:38;33.37;;;15.30;;
11346;SDS011;5728;42.722;23.258;2023-11-21T08:40:05;26.53;;;15.97;;
11346;SDS011;5728;42.722;23.258;2023-11-21T08:42:35;27.60;;;15.03;;
11346;SDS011;5728;42.722;23.258;2023-11-21T08:45:02;32.27;;;16.23;;
11346;SDS011;5728;42.722;23.258;2023-11-21T08:47:34;28.30;;;14.93;;
11346;SDS011;5728;42.722;23.258;2023-11-21T08:50:01;35.47;;;15.50;;
11346;SDS011;5728;42.722;23.258;2023-11-21T09:31:50;23.25;;;14.55;;
11346;SDS011;5728;42.722;23.258;2023-11-21T09:34:18;29.00;;;17.05;;
11346;SDS011;5728;42.722;23.258;2023-11-21T09:36:45;27.35;;;19.15;;
11346;SDS011;5728;42.722;23.258;2023-11-21T09:39:12;29.25;;;19.50;;
11346;SDS011;5728;42.722;23.258;2023-11-21T09:41:42;37.07;;;19.20;;
11346;SDS011;5728;42.722;23.258;2023-11-21T09:44:12;36.22;;;20.85;;
11346;SDS011;5728;42.722;23.258;2023-11-21T09:46:40;28.33;;;16.77;;
11346;SDS011;5728;42.722;23.258;2023-11-21T09:49:09;33.22;;;20.30;;
11346;SDS011;5728;42.722;23.258;2023-11-21T09:51:40;36.30;;;20.70;;
11346;SDS011;5728;42.722;23.258;2023-11-21T09:54:10;35.80;;;21.33;;
11346;SDS011;5728;42.722;23.258;2023-11-21T09:56:37;34.07;;;22.43;;
11346;SDS011;5728;42.722;23.258;2023-11-21T09:59:05;33.07;;;18.83;;
11346;SDS011;5728;42.722;23.258;2023-11-21T10:46:13;25.92;;;16.90;;
11346;SDS011;5728;42.722;23.258;2023-11-21T10:48:41;28.00;;;18.07;;
11346;SDS011;5728;42.722;23.258;2023-11-21T10:58:34;31.80;;;16.93;;
11346;SDS011;5728;42.722;23.258;2023-11-21T11:01:03;36.63;;;19.30;;
11346;SDS011;5728;42.722;23.258;2023-11-21T11:03:32;28.37;;;18.73;;
11346;SDS011;5728;42.722;23.258;2023-11-21T11:06:03;34.87;;;17.27;;
11346;SDS011;5728;42.722;23.258;2023-11-21T11:08:36;38.03;;;20.80;;
11346;SDS011;5728;42.722;23.258;2023-11-21T11:11:04;42.20;;;22.33;;
11346;SDS011;5728;42.722;23.258;2023-11-21T11:13:31;33.28;;;18.75;;
11346;SDS011;5728;42.722;23.258;2023-11-21T11:16:00;30.98;;;18.85;;
11346;SDS011;5728;42.722;23.258;2023-11-21T11:18:28;29.17;;;17.40;;
11346;SDS011;5728;42.722;23.258;2023-11-21T13:08:24;14.07;;;8.63;;
11346;SDS011;5728;42.722;23.258;2023-11-21T13:10:52;15.73;;;10.88;;
11346;SDS011;5728;42.722;23.258;2023-11-21T13:13:21;20.25;;;12.40;;
11346;SDS011;5728;42.722;23.258;2023-11-21T13:15:50;18.08;;;11.30;;
11346;SDS011;5728;42.722;23.258;2023-11-21T13:18:20;17.83;;;11.73;;
11346;SDS011;5728;42.722;23.258;2023-11-21T13:20:48;16.60;;;11.87;;
11346;SDS011;5728;42.722;23.258;2023-11-21T13:23:16;18.85;;;10.13;;
11346;SDS011;5728;42.722;23.258;2023-11-21T13:25:44;17.10;;;10.73;;
11346;SDS011;5728;42.722;23.258;2023-11-21T13:28:13;17.70;;;10.13;;
11346;SDS011;5728;42.722;23.258;2023-11-21T13:30:40;17.30;;;11.35;;
11346;SDS011;5728;42.722;23.258;2023-11-21T13:33:09;17.20;;;12.32;;
11346;SDS011;5728;42.722;23.258;2023-11-21T13:35:38;20.70;;;12.63;;
11346;SDS011;5728;42.722;23.258;2023-11-21T13:38:07;22.33;;;14.73;;
11346;SDS011;5728;42.722;23.258;2023-11-21T13:43:09;22.52;;;14.85;;
11346;SDS011;5728;42.722;23.258;2023-11-21T13:45:36;21.20;;;12.93;;
11346;SDS011;5728;42.722;23.258;2023-11-21T13:48:04;23.35;;;13.57;;
11346;SDS011;5728;42.722;23.258;2023-11-21T13:50:35;21.40;;;11.80;;
11346;SDS011;5728;42.722;23.258;2023-11-21T13:53:02;21.40;;;12.47;;
11346;SDS011;5728;42.722;23.258;2023-11-21T13:55:35;19.13;;;12.37;;
11346;SDS011;5728;42.722;23.258;2023-11-21T13:58:04;23.83;;;12.07;;
11346;SDS011;5728;42.722;23.258;2023-11-21T14:00:36;19.47;;;11.47;;
11346;SDS011;5728;42.722;23.258;2023-11-21T14:03:10;18.93;;;11.63;;
11346;SDS011;5728;42.722;23.258;2023-11-21T14:05:46;21.77;;;13.37;;
11346;SDS011;5728;42.722;23.258;2023-11-21T14:08:16;21.03;;;12.97;;
11346;SDS011;5728;42.722;23.258;2023-11-21T14:10:46;20.63;;;13.73;;
11346;SDS011;5728;42.722;23.258;2023-11-21T14:13:16;31.53;;;14.20;;
11346;SDS011;5728;42.722;23.258;2023-11-21T14:15:45;24.57;;;13.93;;
11346;SDS011;5728;42.722;23.258;2023-11-21T14:18:16;30.27;;;15.37;;
11346;SDS011;5728;42.722;23.258;2023-11-21T14:20:51;30.73;;;16.77;;
11346;SDS011;5728;42.722;23.258;2023-11-21T14:23:18;24.60;;;15.70;;
11346;SDS011;5728;42.722;23.258;2023-11-21T14:25:46;23.93;;;14.50;;
11346;SDS011;5728;42.722;23.258;2023-11-21T14:28:13;24.77;;;15.27;;
11346;SDS011;5728;42.722;23.258;2023-11-21T14:30:40;25.90;;;15.43;;
11346;SDS011;5728;42.722;23.258;2023-11-21T14:33:08;21.23;;;14.17;;
11346;SDS011;5728;42.722;23.258;2023-11-21T14:35:36;25.13;;;15.73;;
11346;SDS011;5728;42.722;23.258;2023-11-21T14:38:03;34.57;;;16.60;;
11346;SDS011;5728;42.722;23.258;2023-11-21T14:40:31;29.53;;;16.97;;
11346;SDS011;5728;42.722;23.258;2023-11-21T14:43:00;75.83;;;44.87;;
11346;SDS011;5728;42.722;23.258;2023-11-21T14:45:30;29.73;;;17.13;;
11346;SDS011;5728;42.722;23.258;2023-11-21T14:47:57;27.23;;;17.37;;
11346;SDS011;5728;42.722;23.258;2023-11-21T14:50:33;30.33;;;17.67;;
11346;SDS011;5728;42.722;23.258;2023-11-21T14:53:16;29.87;;;16.60;;
11346;SDS011;5728;42.722;23.258;2023-11-21T14:55:53;30.33;;;17.33;;
11346;SDS011;5728;42.722;23.258;2023-11-21T14:58:24;26.53;;;16.73;;
11346;SDS011;5728;42.722;23.258;2023-11-21T15:00:55;28.70;;;18.33;;
11346;SDS011;5728;42.722;23.258;2023-11-21T15:03:25;33.70;;;17.67;;
11346;SDS011;5728;42.722;23.258;2023-11-21T15:06:09;26.57;;;17.30;;
11346;SDS011;5728;42.722;23.258;2023-11-21T15:08:52;34.47;;;18.60;;
11346;SDS011;5728;42.722;23.258;2023-11-21T15:11:33;28.43;;;16.30;;
11346;SDS011;5728;42.722;23.258;2023-11-21T15:14:00;27.57;;;17.43;;
11346;SDS011;5728;42.722;23.258;2023-11-21T15:16:31;26.33;;;17.17;;
11346;SDS011;5728;42.722;23.258;2023-11-21T15:18:58;34.23;;;16.90;;
11346;SDS011;5728;42.722;23.258;2023-11-21T15:21:26;32.70;;;18.20;;
11346;SDS011;5728;42.722;23.258;2023-11-21T15:23:53;30.97;;;17.80;;
11346;SDS011;5728;42.722;23.258;2023-11-21T15:26:20;29.17;;;19.40;;
11346;SDS011;5728;42.722;23.258;2023-11-21T15:28:47;48.10;;;27.00;;
11346;SDS011;5728;42.722;23.258;2023-11-21T15:31:14;34.00;;;18.57;;
11346;SDS011;5728;42.722;23.258;2023-11-21T15:33:41;31.17;;;18.17;;
11346;SDS011;5728;42.722;23.258;2023-11-21T15:36:08;42.77;;;20.80;;
11346;SDS011;5728;42.722;23.258;2023-11-21T15:38:37;56.23;;;32.27;;
11346;SDS011;5728;42.722;23.258;2023-11-21T15:41:04;70.17;;;36.10;;
11346;SDS011;5728;42.722;23.258;2023-11-21T15:43:33;99.03;;;53.07;;
11346;SDS011;5728;42.722;23.258;2023-11-21T15:46:00;93.27;;;52.53;;
11346;SDS011;5728;42.722;23.258;2023-11-21T15:48:32;91.83;;;51.33;;
11346;SDS011;5728;42.722;23.258;2023-11-21T15:50:59;106.40;;;54.93;;
11346;SDS011;5728;42.722;23.258;2023-11-21T15:53:27;106.23;;;55.73;;
11346;SDS011;5728;42.722;23.258;2023-11-21T15:55:56;103.87;;;57.83;;
11346;SDS011;5728;42.722;23.258;2023-11-21T15:58:23;121.73;;;63.43;;
11346;SDS011;5728;42.722;23.258;2023-11-21T16:00:51;122.10;;;71.97;;
11346;SDS011;5728;42.722;23.258;2023-11-21T16:03:17;131.40;;;80.40;;
11346;SDS011;5728;42.722;23.258;2023-11-21T16:05:44;132.57;;;79.20;;
11346;SDS011;5728;42.722;23.258;2023-11-21T16:08:11;131.47;;;79.00;;
11346;SDS011;5728;42.722;23.258;2023-11-21T16:10:39;116.37;;;69.00;;
11346;SDS011;5728;42.722;23.258;2023-11-21T16:13:07;100.30;;;62.27;;
11346;SDS011;5728;42.722;23.258;2023-11-21T16:15:34;103.73;;;61.70;;
11346;SDS011;5728;42.722;23.258;2023-11-21T16:18:01;105.40;;;59.27;;
11346;SDS011;5728;42.722;23.258;2023-11-21T16:20:28;90.30;;;49.23;;
11346;SDS011;5728;42.722;23.258;2023-11-21T16:22:55;87.47;;;48.47;;
11346;SDS011;5728;42.722;23.258;2023-11-21T16:25:22;72.73;;;42.27;;
11346;SDS011;5728;42.722;23.258;2023-11-21T16:27:48;56.73;;;35.10;;
11346;SDS011;5728;42.722;23.258;2023-11-21T16:30:17;61.00;;;38.10;;
11346;SDS011;5728;42.722;23.258;2023-11-21T16:32:48;66.57;;;39.53;;
11346;SDS011;5728;42.722;23.258;2023-11-21T16:35:16;59.10;;;38.17;;
11346;SDS011;5728;42.722;23.258;2023-11-21T16:37:43;71.80;;;39.30;;
11346;SDS011;5728;42.722;23.258;2023-11-21T16:40:13;74.90;;;41.93;;
11346;SDS011;5728;42.722;23.258;2023-11-21T16:42:40;64.23;;;42.43;;
11346;SDS011;5728;42.722;23.258;2023-11-21T16:45:06;73.27;;;43.03;;
11346;SDS011;5728;42.722;23.258;2023-11-21T16:47:35;65.00;;;39.80;;
11346;SDS011;5728;42.722;23.258;2023-11-21T16:50:05;78.90;;;39.27;;
11346;SDS011;5728;42.722;23.258;2023-11-21T16:52:33;89.87;;;50.00;;
11346;SDS011;5728;42.722;23.258;2023-11-21T16:55:00;81.17;;;45.07;;
11346;SDS011;5728;42.722;23.258;2023-11-21T16:57:27;64.17;;;38.17;;
11346;SDS011;5728;42.722;23.258;2023-11-21T16:59:54;64.47;;;40.53;;
11346;SDS011;5728;42.722;23.258;2023-11-21T17:02:21;69.60;;;39.23;;
11346;SDS011;5728;42.722;23.258;2023-11-21T17:04:49;64.77;;;35.67;;
11346;SDS011;5728;42.722;23.258;2023-11-21T17:07:16;56.70;;;33.20;;
11346;SDS011;5728;42.722;23.258;2023-11-21T17:09:46;54.17;;;28.70;;
11346;SDS011;5728;42.722;23.258;2023-11-21T17:12:13;45.47;;;27.73;;
11346;SDS011;5728;42.722;23.258;2023-11-21T17:14:40;50.17;;;28.73;;
11346;SDS011;5728;42.722;23.258;2023-11-21T17:17:08;55.95;;;34.95;;
11346;SDS011;5728;42.722;23.258;2023-11-21T17:19:36;68.23;;;37.07;;
11346;SDS011;5728;42.722;23.258;2023-11-21T17:22:05;65.40;;;37.53;;
11346;SDS011;5728;42.722;23.258;2023-11-21T17:24:32;53.03;;;33.30;;
11346;SDS011;5728;42.722;23.258;2023-11-21T17:27:01;83.53;;;41.37;;
11346;SDS011;5728;42.722;23.258;2023-11-21T17:29:28;55.00;;;31.47;;
11346;SDS011;5728;42.722;23.258;2023-11-21T17:31:55;52.93;;;28.23;;
11346;SDS011;5728;42.722;23.258;2023-11-21T17:34:22;48.83;;;29.27;;
11346;SDS011;5728;42.722;23.258;2023-11-21T17:36:49;53.20;;;30.00;;
11346;SDS011;5728;42.722;23.258;2023-11-21T17:39:17;150.60;;;92.47;;
11346;SDS011;5728;42.722;23.258;2023-11-21T17:41:44;54.80;;;33.73;;
11346;SDS011;5728;42.722;23.258;2023-11-21T17:44:11;61.27;;;31.83;;
11346;SDS011;5728;42.722;23.258;2023-11-21T17:51:36;57.43;;;30.83;;
11346;SDS011;5728;42.722;23.258;2023-11-21T17:54:04;50.03;;;27.70;;